createdAt,value
2023-04-18T00:01:29.381Z,5.90
2023-04-18T00:04:08.137Z,6.20
2023-04-18T00:06:39.349Z,6.30
2023-04-18T00:09:05.806Z,6.00
2023-04-18T00:11:38.544Z,6.15
2023-04-18T00:14:10.505Z,5.80
2023-04-18T00:16:41.446Z,5.68
2023-04-18T00:19:18.618Z,5.65
2023-04-18T00:21:49.070Z,6.45
2023-04-18T00:24:29.010Z,5.40
2023-04-18T00:27:02.706Z,5.93
2023-04-18T00:29:32.696Z,5.35
2023-04-18T00:32:11.604Z,5.75
2023-04-18T00:34:42.126Z,5.47
2023-04-18T00:37:19.097Z,5.32
2023-04-18T00:39:57.635Z,5.40
2023-04-18T00:42:34.273Z,5.40
2023-04-18T00:45:08.492Z,5.65
2023-04-18T00:47:48.821Z,5.40
2023-04-18T00:50:22.712Z,5.03
2023-04-18T00:52:53.361Z,4.85
2023-04-18T00:55:24.991Z,5.32
2023-04-18T00:57:54.970Z,5.53
2023-04-18T01:00:29.169Z,5.18
2023-04-18T01:05:49.853Z,5.07
2023-04-18T01:08:19.741Z,5.13
2023-04-18T01:11:00.909Z,4.85
2023-04-18T01:13:42.993Z,4.88
2023-04-18T01:16:14.151Z,5.10
2023-04-18T01:18:49.994Z,5.18
2023-04-18T01:21:26.998Z,5.20
2023-04-18T01:23:56.138Z,5.40
2023-04-18T01:26:25.788Z,4.60
2023-04-18T01:28:54.723Z,5.20
2023-04-18T01:34:07.327Z,5.20
2023-04-18T01:36:33.824Z,4.57
2023-04-18T01:39:00.448Z,4.90
2023-04-18T01:41:31.140Z,4.85
2023-04-18T01:44:02.846Z,4.65
2023-04-18T01:46:32.742Z,4.97
2023-04-18T01:49:02.204Z,4.82
2023-04-18T01:53:57.771Z,5.00
2023-04-18T01:56:40.359Z,5.13
2023-04-18T01:59:12.521Z,4.93
2023-04-18T02:01:50.710Z,4.55
2023-04-18T02:04:21.596Z,5.18
2023-04-18T02:07:02.832Z,5.20
2023-04-18T02:09:33.129Z,4.60
2023-04-18T02:12:05.384Z,4.65
2023-04-18T02:14:39.304Z,5.43
2023-04-18T02:17:15.634Z,4.95
2023-04-18T02:19:45.114Z,5.07
2023-04-18T02:24:53.770Z,5.03
2023-04-18T02:27:31.505Z,5.28
2023-04-18T02:29:57.945Z,5.22
2023-04-18T02:32:28.711Z,5.60
2023-04-18T02:34:58.331Z,5.03
2023-04-18T02:37:26.010Z,5.00
2023-04-18T02:39:55.067Z,5.28
2023-04-18T02:42:39.516Z,5.30
2023-04-18T02:45:12.004Z,5.10
2023-04-18T02:47:51.073Z,5.35
2023-04-18T02:50:24.735Z,5.00
2023-04-18T02:52:55.469Z,5.03
2023-04-18T02:55:31.550Z,5.40
2023-04-18T02:58:13.225Z,4.82
2023-04-18T03:00:46.159Z,4.90
2023-04-18T03:03:15.503Z,4.88
2023-04-18T03:05:46.930Z,4.50
2023-04-18T03:08:20.010Z,4.88
2023-04-18T03:10:50.750Z,4.22
2023-04-18T03:13:20.200Z,4.63
2023-04-18T03:18:22.129Z,4.47
2023-04-18T03:20:54.854Z,4.95
2023-04-18T03:23:24.963Z,5.18
2023-04-18T03:25:56.791Z,5.10
2023-04-18T03:28:25.838Z,5.20
2023-04-18T03:30:52.283Z,4.95
2023-04-18T03:33:20.195Z,4.75
2023-04-18T03:35:49.408Z,5.25
2023-04-18T03:38:20.864Z,5.30
2023-04-18T03:40:49.746Z,5.40
2023-04-18T03:43:24.800Z,5.32
2023-04-18T03:45:53.599Z,5.15
2023-04-18T03:48:24.534Z,5.93
2023-04-18T03:50:50.905Z,5.60
2023-04-18T03:53:17.473Z,6.00
2023-04-18T03:55:44.141Z,6.00
2023-04-18T03:58:10.646Z,5.43
2023-04-18T04:00:37.260Z,6.60
2023-04-18T04:03:04.063Z,5.53
2023-04-18T04:05:43.297Z,5.60
2023-04-18T04:08:16.804Z,5.90
2023-04-18T04:10:45.604Z,6.45
2023-04-18T04:13:14.440Z,5.78
2023-04-18T04:16:05.073Z,6.18
2023-04-18T04:18:35.286Z,6.30
2023-04-18T04:21:08.708Z,5.90
2023-04-18T04:23:35.126Z,6.22
2023-04-18T04:26:08.729Z,6.43
2023-04-18T04:28:41.837Z,5.85
2023-04-18T04:31:17.026Z,6.15
2023-04-18T04:33:53.936Z,5.90
2023-04-18T04:36:30.800Z,6.53
2023-04-18T04:38:59.731Z,5.80
2023-04-18T04:41:35.001Z,5.97
2023-04-18T04:44:12.041Z,6.53
2023-04-18T04:46:41.626Z,5.70
2023-04-18T04:49:10.410Z,5.40
2023-04-18T04:51:46.477Z,6.20
2023-04-18T04:54:18.523Z,6.20
2023-04-18T04:56:47.260Z,6.80
2023-04-18T04:59:18.170Z,6.20
2023-04-18T05:01:44.891Z,6.65
2023-04-18T05:04:18.028Z,6.07
2023-04-18T05:06:58.707Z,5.80
2023-04-18T05:09:25.145Z,6.40
2023-04-18T05:11:58.430Z,5.88
2023-04-18T05:14:24.978Z,6.47
2023-04-18T05:16:54.670Z,6.20
2023-04-18T05:19:24.403Z,6.50
2023-04-18T05:21:55.529Z,5.90
2023-04-18T05:27:04.284Z,5.80
2023-04-18T05:29:35.408Z,6.22
2023-04-18T05:32:06.473Z,5.95
2023-04-18T05:34:37.358Z,5.80
2023-04-18T05:40:01.064Z,5.88
2023-04-18T05:42:34.290Z,5.63
2023-04-18T05:45:08.757Z,5.55
2023-04-18T05:47:40.433Z,5.68
2023-04-18T05:50:11.060Z,5.28
2023-04-18T05:52:48.370Z,5.90
2023-04-18T05:55:20.542Z,4.88
2023-04-18T05:57:49.784Z,5.05
2023-04-18T06:00:25.628Z,5.53
2023-04-18T06:02:54.598Z,4.80
2023-04-18T06:08:08.648Z,4.68
2023-04-18T06:10:39.128Z,4.38
2023-04-18T06:13:07.789Z,5.05
2023-04-18T06:15:43.868Z,5.00
2023-04-18T06:18:14.282Z,5.30
2023-04-18T06:20:50.070Z,5.03
2023-04-18T06:26:21.342Z,4.93
2023-04-18T06:28:50.868Z,5.10
2023-04-18T06:33:50.970Z,4.28
2023-04-18T06:36:22.031Z,4.88
2023-04-18T06:39:04.737Z,4.03
2023-04-18T06:41:34.689Z,4.43
2023-04-18T06:44:05.308Z,4.10
2023-04-18T06:46:45.517Z,4.65
2023-04-18T06:49:14.284Z,4.38
2023-04-18T06:51:45.421Z,4.80
2023-04-18T06:54:24.467Z,5.10
2023-04-18T06:56:54.847Z,5.40
2023-04-18T06:59:29.550Z,4.90
2023-04-18T07:01:56.017Z,5.00
2023-04-18T07:04:22.541Z,5.57
2023-04-18T07:06:48.944Z,5.40
2023-04-18T07:09:16.697Z,5.32
2023-04-18T07:11:43.071Z,5.07
2023-04-18T07:14:09.461Z,5.55
2023-04-18T07:16:35.888Z,5.55
2023-04-18T07:19:02.369Z,5.68
2023-04-18T07:21:28.803Z,5.10
2023-04-18T07:23:55.162Z,4.50
2023-04-18T07:26:22.990Z,4.40
2023-04-18T07:28:49.414Z,4.68
2023-04-18T07:31:15.817Z,5.05
2023-04-18T07:33:42.259Z,5.25
2023-04-18T07:36:08.965Z,5.10
2023-04-18T07:38:35.360Z,4.93
2023-04-18T07:41:02.096Z,4.25
2023-04-18T07:43:29.865Z,4.78
2023-04-18T07:45:56.317Z,4.53
2023-04-18T07:48:22.910Z,3.95
2023-04-18T07:50:49.514Z,3.92
2023-04-18T07:53:16.041Z,4.05
2023-04-18T07:55:42.477Z,4.20
2023-04-18T07:58:08.875Z,4.13
2023-04-18T08:00:37.415Z,4.28
2023-04-18T08:03:04.015Z,3.80
2023-04-18T08:05:30.637Z,4.60
2023-04-18T08:07:57.137Z,4.35
2023-04-18T08:10:23.921Z,3.70
2023-04-18T08:12:50.470Z,3.58
2023-04-18T08:15:16.931Z,3.90
2023-04-18T08:17:45.587Z,3.70
2023-04-18T08:20:15.503Z,4.20
2023-04-18T08:22:57.656Z,4.40
2023-04-18T08:25:28.596Z,3.33
2023-04-18T08:27:57.973Z,3.25
2023-04-18T08:30:24.479Z,4.80
2023-04-18T08:32:52.362Z,4.68
2023-04-18T08:35:18.846Z,5.75
2023-04-18T08:37:45.206Z,6.85
2023-04-18T08:40:11.906Z,8.02
2023-04-18T08:42:38.341Z,8.60
2023-04-18T08:45:05.214Z,9.40
2023-04-18T08:47:32.893Z,11.43
2023-04-18T08:50:11.661Z,12.27
2023-04-18T08:52:41.654Z,7.00
2023-04-18T08:55:19.991Z,3.72
2023-04-18T08:57:46.920Z,4.00
2023-04-18T09:00:14.102Z,3.90
2023-04-18T09:02:44.637Z,4.00
2023-04-18T09:05:13.398Z,3.47
2023-04-18T09:07:40.052Z,3.45
2023-04-18T09:10:07.667Z,6.20
2023-04-18T09:12:43.740Z,3.22
2023-04-18T09:15:21.181Z,4.18
2023-04-18T09:17:51.465Z,3.42
2023-04-18T09:20:36.317Z,6.72
2023-04-18T09:23:03.533Z,4.80
2023-04-18T09:25:30.813Z,9.93
2023-04-18T09:27:58.453Z,7.55
2023-04-18T09:30:43.832Z,7.50
2023-04-18T09:33:37.600Z,13.88
2023-04-18T09:36:23.373Z,3.20
2023-04-18T09:38:56.055Z,4.40
2023-04-18T09:41:26.942Z,2.53
2023-04-18T09:44:08.261Z,4.35
2023-04-18T09:46:36.944Z,3.80
2023-04-18T09:49:07.010Z,5.03
2023-04-18T09:51:38.116Z,2.92
2023-04-18T09:54:07.571Z,3.10
2023-04-18T09:59:07.160Z,2.80
2023-04-18T10:04:03.542Z,3.88
2023-04-18T10:06:29.968Z,3.00
2023-04-18T10:08:58.121Z,3.63
2023-04-18T10:11:24.833Z,3.08
2023-04-18T10:13:53.486Z,2.83
2023-04-18T10:16:20.261Z,3.00
2023-04-18T10:18:46.699Z,3.20
2023-04-18T10:21:13.039Z,3.10
2023-04-18T10:23:39.803Z,3.10
2023-04-18T10:26:07.922Z,3.25
2023-04-18T10:28:49.244Z,3.63
2023-04-18T10:31:20.317Z,3.40
2023-04-18T10:36:16.800Z,3.50
2023-04-18T10:38:47.137Z,3.85
2023-04-18T10:41:16.059Z,3.75
2023-04-18T10:44:01.194Z,4.18
2023-04-18T10:46:32.221Z,4.40
2023-04-18T10:49:15.656Z,3.95
2023-04-18T10:51:42.310Z,4.40
2023-04-18T10:54:10.524Z,4.13
2023-04-18T10:56:38.589Z,4.18
2023-04-18T10:59:05.191Z,4.57
2023-04-18T11:01:32.897Z,4.40
2023-04-18T11:04:00.122Z,4.40
2023-04-18T11:06:26.663Z,4.10
2023-04-18T11:09:08.243Z,4.53
2023-04-18T11:11:34.619Z,4.55
2023-04-18T11:14:02.376Z,5.03
2023-04-18T11:16:28.985Z,4.60
2023-04-18T11:18:55.608Z,5.07
2023-04-18T11:21:22.036Z,4.50
2023-04-18T11:23:48.409Z,4.60
2023-04-18T11:26:14.832Z,6.03
2023-04-18T11:28:41.499Z,4.90
2023-04-18T11:31:09.262Z,4.85
2023-04-18T11:33:35.698Z,5.80
2023-04-18T11:36:02.365Z,5.72
2023-04-18T11:38:29.251Z,5.13
2023-04-18T11:40:55.721Z,5.82
2023-04-18T11:43:22.795Z,5.10
2023-04-18T11:45:53.042Z,5.70
2023-04-18T11:48:20.943Z,5.22
2023-04-18T11:50:47.369Z,5.03
2023-04-18T11:53:13.747Z,4.80
2023-04-18T11:55:40.133Z,4.80
2023-04-18T11:58:06.518Z,5.63
2023-04-18T12:00:33.798Z,5.18
2023-04-18T12:03:01.039Z,4.80
2023-04-18T12:05:29.742Z,4.70
2023-04-18T12:07:56.678Z,5.25
2023-04-18T12:10:24.233Z,8.88
2023-04-18T12:12:51.061Z,5.55
2023-04-18T12:15:18.207Z,5.60
2023-04-18T12:17:44.904Z,5.20
2023-04-18T12:20:11.638Z,5.63
2023-04-18T12:22:43.201Z,4.95
2023-04-18T12:25:10.222Z,5.13
2023-04-18T12:27:46.779Z,5.57
2023-04-18T12:30:13.841Z,5.95
2023-04-18T12:32:40.294Z,5.10
2023-04-18T12:35:07.225Z,5.03
2023-04-18T12:37:33.641Z,5.15
2023-04-18T12:40:01.388Z,5.68
2023-04-18T12:42:27.801Z,5.25
2023-04-18T12:44:54.188Z,4.80
2023-04-18T12:47:20.562Z,5.25
2023-04-18T12:49:46.982Z,5.18
2023-04-18T12:52:13.367Z,5.30
2023-04-18T12:54:39.732Z,5.38
2023-04-18T12:57:07.440Z,5.28
2023-04-18T12:59:33.806Z,5.10
2023-04-18T13:02:00.256Z,4.55
2023-04-18T13:04:26.841Z,4.57
2023-04-18T13:06:59.756Z,4.70
2023-04-18T13:09:26.180Z,4.68
2023-04-18T13:11:52.644Z,4.65
2023-04-18T13:14:20.515Z,5.07
2023-04-18T13:16:46.964Z,5.32
2023-04-18T13:19:13.580Z,5.10
2023-04-18T13:21:40.120Z,4.78
2023-04-18T13:24:06.916Z,4.80
2023-04-18T13:26:33.538Z,4.97
2023-04-18T13:29:00.062Z,4.68
2023-04-18T13:31:27.851Z,4.70
2023-04-18T13:33:54.282Z,4.82
2023-04-18T13:36:20.656Z,4.25
2023-04-18T13:38:47.390Z,4.85
2023-04-18T13:41:13.917Z,4.53
2023-04-18T13:43:40.361Z,4.65
2023-04-18T13:46:06.813Z,5.00
2023-04-18T13:48:34.602Z,4.10
2023-04-18T13:51:00.970Z,3.90
2023-04-18T13:53:28.900Z,3.30
2023-04-18T13:55:57.086Z,3.38
2023-04-18T13:58:23.460Z,3.50
2023-04-18T14:00:49.857Z,3.25
2023-04-18T14:03:16.350Z,2.90
2023-04-18T14:05:44.222Z,3.00
2023-04-18T14:08:10.638Z,2.97
2023-04-18T14:10:37.114Z,2.60
2023-04-18T14:13:03.522Z,2.85
2023-04-18T14:15:30.079Z,2.75
2023-04-18T14:17:56.506Z,2.72
2023-04-18T14:20:22.962Z,2.65
2023-04-18T14:22:52.997Z,3.00
2023-04-18T14:25:19.674Z,2.85
2023-04-18T14:27:47.133Z,2.70
2023-04-18T14:30:14.434Z,3.05
2023-04-18T14:32:41.238Z,3.30
2023-04-18T14:35:08.546Z,3.47
2023-04-18T14:37:34.901Z,3.70
2023-04-18T14:40:02.710Z,3.80
2023-04-18T14:42:29.079Z,3.50
2023-04-18T14:44:55.523Z,3.58
2023-04-18T14:47:22.661Z,3.65
2023-04-18T14:49:50.519Z,3.35
2023-04-18T14:52:16.923Z,3.33
2023-04-18T14:54:43.328Z,3.67
2023-04-18T14:57:11.160Z,3.30
2023-04-18T14:59:37.558Z,3.72
2023-04-18T15:02:04.026Z,3.60
2023-04-18T15:04:30.527Z,3.53
2023-04-18T15:06:57.014Z,3.95
2023-04-18T15:09:23.467Z,3.42
2023-04-18T15:11:49.936Z,3.47
2023-04-18T15:14:17.684Z,3.78
2023-04-18T15:16:44.132Z,3.90
2023-04-18T15:19:10.572Z,3.95
2023-04-18T15:21:36.950Z,3.70
2023-04-18T15:24:03.488Z,3.78
2023-04-18T15:26:32.328Z,4.05
2023-04-18T15:29:00.935Z,3.90
2023-04-18T15:31:29.011Z,3.88
2023-04-18T15:33:55.803Z,4.18
2023-04-18T15:36:22.435Z,4.07
2023-04-18T15:38:48.933Z,3.75
2023-04-18T15:41:15.432Z,3.53
2023-04-18T15:43:41.895Z,3.60
2023-04-18T15:46:08.407Z,3.47
2023-04-18T15:48:36.342Z,4.25
2023-04-18T15:51:03.157Z,3.88
2023-04-18T15:53:29.670Z,4.10
2023-04-18T15:55:58.140Z,4.35
2023-04-18T15:58:24.759Z,3.90
2023-04-18T16:00:51.337Z,4.30
2023-04-18T16:03:18.131Z,3.90
2023-04-18T16:05:46.172Z,3.95
2023-04-18T16:08:15.179Z,4.25
2023-04-18T16:10:41.953Z,4.00
2023-04-18T16:13:08.546Z,3.88
2023-04-18T16:15:36.360Z,3.78
2023-04-18T16:18:03.122Z,4.40
2023-04-18T16:20:31.450Z,4.00
2023-04-18T16:23:00.926Z,4.35
2023-04-18T16:27:53.988Z,3.92
2023-04-18T16:30:23.334Z,4.22
2023-04-18T16:32:50.210Z,4.47
2023-04-18T16:35:16.823Z,4.82
2023-04-18T16:37:43.374Z,4.72
2023-04-18T16:40:11.788Z,4.40
2023-04-18T16:42:41.438Z,4.38
2023-04-18T16:45:08.391Z,4.72
2023-04-18T16:47:36.720Z,5.10
2023-04-18T16:50:03.300Z,5.03
2023-04-18T16:52:32.002Z,5.28
2023-04-18T16:54:58.734Z,5.32
2023-04-18T16:57:26.908Z,5.68
2023-04-18T16:59:53.943Z,4.87
2023-04-18T17:02:20.681Z,5.10
2023-04-18T17:04:47.390Z,5.60
2023-04-18T17:07:14.029Z,5.10
2023-04-18T17:09:40.486Z,5.53
2023-04-18T17:12:07.103Z,6.00
2023-04-18T17:14:35.012Z,5.45
2023-04-18T17:17:01.529Z,5.70
2023-04-18T17:19:28.026Z,5.68
2023-04-18T17:21:54.510Z,5.60
2023-04-18T17:24:21.307Z,5.70
2023-04-18T17:26:48.126Z,5.68
2023-04-18T17:29:14.970Z,5.43
2023-04-18T17:31:43.524Z,5.70
2023-04-18T17:34:11.635Z,6.15
2023-04-18T17:36:38.313Z,5.85
2023-04-18T17:39:05.426Z,6.60
2023-04-18T17:41:38.093Z,6.68
2023-04-18T17:44:05.759Z,6.50
2023-04-18T17:46:32.570Z,6.85
2023-04-18T17:49:02.213Z,6.68
2023-04-18T17:53:55.041Z,6.10
2023-04-18T17:56:23.525Z,6.72
2023-04-18T17:58:50.063Z,7.78
2023-04-18T18:01:16.675Z,7.75
2023-04-18T18:03:44.703Z,7.57
2023-04-18T18:06:12.780Z,8.27
2023-04-18T18:08:39.259Z,8.45
2023-04-18T18:11:05.693Z,8.00
2023-04-18T18:13:32.293Z,9.23
2023-04-18T18:15:58.712Z,8.73
2023-04-18T18:18:25.390Z,8.93
2023-04-18T18:20:51.900Z,8.70
2023-04-18T18:23:19.711Z,9.25
2023-04-18T18:25:46.178Z,9.07
2023-04-18T18:28:12.667Z,9.30
2023-04-18T18:30:39.137Z,9.35
2023-04-18T18:33:05.668Z,8.73
2023-04-18T18:35:32.269Z,8.55
2023-04-18T18:37:58.698Z,8.40
2023-04-18T18:40:26.560Z,8.65
2023-04-18T18:42:52.964Z,8.63
2023-04-18T18:45:19.516Z,8.73
2023-04-18T18:47:45.945Z,8.13
2023-04-18T18:50:12.440Z,7.25
2023-04-18T18:52:38.860Z,6.90
2023-04-18T18:55:05.781Z,6.75
2023-04-18T18:57:33.589Z,6.60
2023-04-18T18:59:59.998Z,7.20
2023-04-18T19:02:26.621Z,7.72
2023-04-18T19:04:53.394Z,7.97
2023-04-18T19:07:19.956Z,8.20
2023-04-18T19:10:04.052Z,7.82
2023-04-18T19:12:34.821Z,8.35
2023-04-18T19:15:02.766Z,8.70
2023-04-18T19:17:29.156Z,9.23
2023-04-18T19:19:55.601Z,8.52
2023-04-18T19:22:22.034Z,8.65
2023-04-18T19:24:48.472Z,9.30
2023-04-18T19:27:18.123Z,9.48
2023-04-18T19:29:44.818Z,10.25
2023-04-18T19:32:12.607Z,10.27
2023-04-18T19:34:41.183Z,11.00
2023-04-18T19:37:07.592Z,11.90
2023-04-18T19:39:34.119Z,11.25
2023-04-18T19:42:00.546Z,11.07
2023-04-18T19:44:26.926Z,10.95
2023-04-18T19:46:53.365Z,11.45
2023-04-18T19:49:21.135Z,10.75
2023-04-18T19:51:47.523Z,11.15
2023-04-18T19:54:13.910Z,10.82
2023-04-18T19:56:40.425Z,11.00
2023-04-18T19:59:07.101Z,10.95
2023-04-18T22:25:40.621Z,8.27
2023-04-18T22:28:07.195Z,8.50
2023-04-18T22:30:33.860Z,8.50
2023-04-18T22:33:00.401Z,8.95
2023-04-18T22:35:27.001Z,8.05
2023-04-18T22:37:55.452Z,8.80
2023-04-18T22:40:22.189Z,8.38
2023-04-18T22:42:50.185Z,8.68
2023-04-18T22:45:16.721Z,8.98
2023-04-18T22:47:43.239Z,8.25
2023-04-18T22:50:14.824Z,7.28
2023-04-18T22:52:41.463Z,7.45
2023-04-18T22:55:08.285Z,7.25
2023-04-18T22:57:34.691Z,8.23
2023-04-18T23:00:02.626Z,8.50
2023-04-18T23:02:29.288Z,6.25
2023-04-18T23:04:56.836Z,6.20
2023-04-18T23:07:23.255Z,6.63
2023-04-18T23:09:50.018Z,7.18
2023-04-18T23:12:16.589Z,5.88
2023-04-18T23:14:43.037Z,7.88
2023-04-18T23:17:10.830Z,8.38
2023-04-18T23:19:37.364Z,8.30
2023-04-18T23:22:06.129Z,7.80
2023-04-18T23:24:42.180Z,7.97
2023-04-18T23:27:08.708Z,7.43
2023-04-18T23:29:38.552Z,7.43
2023-04-18T23:32:08.811Z,7.60
2023-04-18T23:34:36.570Z,7.70
2023-04-18T23:37:03.019Z,8.35
2023-04-18T23:39:29.407Z,8.43
2023-04-18T23:41:55.879Z,7.90
2023-04-18T23:44:22.412Z,7.72
2023-04-18T23:46:49.088Z,7.05
2023-04-18T23:49:17.676Z,8.10
2023-04-18T23:51:45.398Z,6.85
2023-04-18T23:54:17.482Z,7.07
2023-04-18T23:56:43.960Z,7.15
2023-04-18T23:59:14.880Z,7.03
